Time;durP1;ratioP1;P1;durP2;ratioP2;P2;SDS_P1;SDS_P2;PMS_P1;PMS_P2;Temp;Humidity;BMP_temperature;BMP_pressure;BME280_temperature;BME280_humidity;BME280_pressure;Samples;Min_cycle;Max_cycle;Signal;HPM_P1;HPM_P2
2021/06/06 00:01:47;;;;;;;35.20;32.80;;;17.50;99.90;;;;;;4933814;29;20462;-71
2021/06/06 00:04:16;;;;;;;35.17;32.87;;;17.50;99.90;;;;;;4933790;29;20948;-71
2021/06/06 00:06:44;;;;;;;36.07;33.67;;;17.60;99.90;;;;;;4933543;29;20453;-71
2021/06/06 00:09:14;;;;;;;33.27;31.07;;;17.60;99.90;;;;;;4933334;29;20516;-71
2021/06/06 00:11:42;;;;;;;32.63;30.60;;;17.60;99.90;;;;;;4933399;29;20614;-71
2021/06/06 00:14:11;;;;;;;33.57;31.37;;;17.60;99.90;;;;;;4933421;29;20481;-71
2021/06/06 00:16:40;;;;;;;33.80;31.60;;;17.70;99.90;;;;;;4933043;29;20944;-72
2021/06/06 00:19:08;;;;;;;32.37;30.47;;;17.70;99.90;;;;;;4933232;29;20489;-72
2021/06/06 00:21:35;;;;;;;32.83;30.43;;;17.60;99.90;;;;;;4933408;29;20453;-71
2021/06/06 00:24:04;;;;;;;33.37;31.00;;;17.70;99.90;;;;;;4933288;29;20952;-71
2021/06/06 00:26:31;;;;;;;29.67;28.03;;;17.60;99.90;;;;;;4933447;29;20516;-72
2021/06/06 00:28:57;;;;;;;31.60;29.53;;;17.60;99.90;;;;;;4933259;29;20516;-71
2021/06/06 00:31:23;;;;;;;30.13;28.00;;;17.60;99.90;;;;;;4933081;29;20620;-71
2021/06/06 00:33:50;;;;;;;30.63;28.93;;;17.60;99.90;;;;;;4933070;29;20513;-71
2021/06/06 00:36:17;;;;;;;30.80;28.80;;;17.70;99.90;;;;;;4933383;29;20449;-71
2021/06/06 00:38:44;;;;;;;28.70;26.90;;;17.80;99.90;;;;;;4933196;29;20947;-71
2021/06/06 00:41:13;;;;;;;26.63;25.13;;;17.80;99.90;;;;;;4933175;29;20536;-71
2021/06/06 00:43:39;;;;;;;26.80;24.90;;;17.70;99.90;;;;;;4932792;29;20477;-71
2021/06/06 00:46:07;;;;;;;25.37;23.87;;;17.80;99.90;;;;;;4934165;29;20457;-72
2021/06/06 00:48:34;;;;;;;26.67;25.00;;;17.70;99.90;;;;;;4936719;29;20964;-72
2021/06/06 00:51:04;;;;;;;26.60;25.10;;;17.70;99.90;;;;;;4936810;29;20516;-71
2021/06/06 00:53:34;;;;;;;25.60;23.97;;;17.70;99.90;;;;;;4936212;29;20469;-71
2021/06/06 00:56:02;;;;;;;24.50;23.10;;;17.80;99.90;;;;;;4936709;29;20476;-71
2021/06/06 00:58:29;;;;;;;24.00;22.50;;;17.80;99.90;;;;;;4936572;29;20540;-71
2021/06/06 01:00:57;;;;;;;23.40;22.00;;;17.80;99.90;;;;;;4936451;29;20462;-71
2021/06/06 01:03:25;;;;;;;22.27;20.83;;;17.80;99.90;;;;;;4936585;29;20453;-71
2021/06/06 01:05:55;;;;;;;23.47;22.07;;;17.80;99.90;;;;;;4936178;29;20708;-72
2021/06/06 01:08:22;;;;;;;22.13;20.70;;;17.70;99.90;;;;;;4936277;29;20935;-71
2021/06/06 01:10:53;;;;;;;20.40;19.20;;;17.70;99.90;;;;;;4936395;29;20834;-72
2021/06/06 01:13:25;;;;;;;20.40;19.20;;;17.70;99.90;;;;;;4936380;29;20453;-71
2021/06/06 01:15:57;;;;;;;22.07;20.33;;;17.70;99.90;;;;;;4936144;29;20963;-71
2021/06/06 01:18:28;;;;;;;21.50;20.13;;;17.80;99.90;;;;;;4936263;29;20869;-71
2021/06/06 01:21:06;;;;;;;19.60;18.50;;;17.80;99.90;;;;;;4936329;29;20939;-71
2021/06/06 01:24:07;;;;;;;20.20;19.00;;;17.80;99.90;;;;;;4936358;29;20433;-70
2021/06/06 01:26:42;;;;;;;20.70;19.33;;;17.70;99.90;;;;;;4921272;29;20461;-72
2021/06/06 01:29:16;;;;;;;21.40;19.93;;;17.80;99.90;;;;;;4936097;29;20456;-71
2021/06/06 01:31:48;;;;;;;21.10;19.70;;;17.90;99.90;;;;;;4936085;29;20496;-71
2021/06/06 01:34:18;;;;;;;21.13;19.83;;;18.00;99.90;;;;;;4935915;29;20460;-71
2021/06/06 01:36:47;;;;;;;21.37;20.10;;;18.00;99.90;;;;;;4935887;29;20461;-71
2021/06/06 01:39:17;;;;;;;19.90;18.80;;;18.00;99.90;;;;;;4936037;29;20458;-71
2021/06/06 01:41:49;;;;;;;18.83;17.73;;;18.00;99.90;;;;;;4935583;29;20457;-71
2021/06/06 01:44:19;;;;;;;18.33;17.23;;;17.90;99.90;;;;;;4935923;29;20445;-71
2021/06/06 01:46:49;;;;;;;20.40;19.20;;;17.80;99.90;;;;;;4936131;29;20458;-71
2021/06/06 01:49:17;;;;;;;19.63;18.53;;;17.80;99.90;;;;;;4935836;29;20457;-72
2021/06/06 01:51:45;;;;;;;20.97;19.67;;;17.80;99.90;;;;;;4935490;29;20489;-72
2021/06/06 01:54:15;;;;;;;19.20;18.10;;;17.80;99.90;;;;;;4935697;29;20500;-72
2021/06/06 01:56:44;;;;;;;19.70;18.60;;;17.70;99.90;;;;;;4935250;29;20469;-72
2021/06/06 01:59:18;;;;;;;19.37;18.27;;;17.60;99.90;;;;;;4934498;29;20500;-72
2021/06/06 02:01:45;;;;;;;18.93;17.80;;;17.60;99.90;;;;;;4935572;29;20445;-72
2021/06/06 02:04:11;;;;;;;18.33;17.33;;;17.70;99.90;;;;;;4935077;29;20464;-71
2021/06/06 02:06:43;;;;;;;18.07;17.07;;;17.60;99.90;;;;;;4935381;29;20512;-72
2021/06/06 02:09:11;;;;;;;17.90;16.90;;;17.60;99.90;;;;;;4935341;29;20453;-72
2021/06/06 02:11:42;;;;;;;19.70;18.50;;;17.60;99.90;;;;;;4935205;29;20520;-72
2021/06/06 02:14:11;;;;;;;19.00;17.80;;;17.60;99.90;;;;;;4935259;29;20461;-71
2021/06/06 02:16:43;;;;;;;18.10;17.10;;;17.60;99.90;;;;;;4935157;29;20458;-71
2021/06/06 02:19:09;;;;;;;19.17;18.17;;;17.60;99.90;;;;;;4935487;29;20453;-71
2021/06/06 02:21:37;;;;;;;18.23;17.10;;;17.60;99.90;;;;;;4935116;29;20940;-71
2021/06/06 02:24:04;;;;;;;18.40;17.40;;;17.60;99.90;;;;;;4935307;29;20468;-71
2021/06/06 02:26:36;;;;;;;17.80;16.90;;;17.60;99.90;;;;;;4935132;29;20952;-71
2021/06/06 02:29:08;;;;;;;19.10;17.83;;;17.60;99.90;;;;;;4935012;29;20798;-71
2021/06/06 02:31:39;;;;;;;17.57;16.67;;;17.60;99.90;;;;;;4934826;29;20489;-72
2021/06/06 02:34:13;;;;;;;17.20;16.30;;;17.60;99.90;;;;;;4934648;29;20481;-72
2021/06/06 02:36:42;;;;;;;17.90;16.90;;;17.60;99.90;;;;;;4934882;29;20460;-72
2021/06/06 02:39:12;;;;;;;18.23;17.13;;;17.50;99.90;;;;;;4934906;29;20453;-71
2021/06/06 02:41:44;;;;;;;17.43;16.43;;;17.60;99.90;;;;;;4934524;29;20484;-73
2021/06/06 02:44:15;;;;;;;17.03;16.03;;;17.50;99.90;;;;;;4934874;29;20453;-73
2021/06/06 02:46:42;;;;;;;17.47;16.47;;;17.50;99.90;;;;;;4934640;29;20505;-73
2021/06/06 02:49:14;;;;;;;18.70;17.60;;;17.50;99.90;;;;;;4934263;29;20464;-73
2021/06/06 02:51:44;;;;;;;18.10;16.90;;;17.40;99.90;;;;;;4934538;29;20492;-73
2021/06/06 02:54:16;;;;;;;18.00;17.00;;;17.40;99.90;;;;;;4934621;29;20442;-73
2021/06/06 02:56:45;;;;;;;18.13;17.03;;;17.40;99.90;;;;;;4934212;29;20553;-73
2021/06/06 02:59:16;;;;;;;17.70;16.60;;;17.50;99.90;;;;;;4934148;29;20492;-72
2021/06/06 03:01:45;;;;;;;17.80;16.90;;;17.40;99.90;;;;;;4934437;29;20481;-73
2021/06/06 03:04:17;;;;;;;17.87;16.87;;;17.50;99.90;;;;;;4934363;29;20481;-72
2021/06/06 03:06:49;;;;;;;17.30;16.40;;;17.60;99.90;;;;;;4934583;29;20457;-71
2021/06/06 03:09:16;;;;;;;16.80;16.00;;;17.60;99.90;;;;;;4933821;29;20494;-72
2021/06/06 03:11:44;;;;;;;18.57;17.60;;;17.60;99.90;;;;;;4934219;29;20494;-72
2021/06/06 03:14:15;;;;;;;18.67;17.63;;;17.60;99.90;;;;;;4934223;29;20453;-72
2021/06/06 03:16:53;;;;;;;17.33;16.33;;;17.50;99.90;;;;;;4934229;29;20497;-71
2021/06/06 03:19:22;;;;;;;18.70;17.70;;;17.50;99.90;;;;;;4934028;29;20901;-71
2021/06/06 03:21:50;;;;;;;19.23;18.07;;;17.40;99.90;;;;;;4933782;29;20457;-71
2021/06/06 03:24:20;;;;;;;19.00;17.83;;;17.20;99.90;;;;;;4934002;29;20457;-70
2021/06/06 03:26:50;;;;;;;20.70;19.30;;;17.10;99.90;;;;;;4933978;29;20461;-71
2021/06/06 03:29:19;;;;;;;19.47;18.17;;;17.10;99.90;;;;;;4934277;29;20485;-71
2021/06/06 03:31:50;;;;;;;18.53;17.47;;;17.10;99.90;;;;;;4933933;29;20485;-71
2021/06/06 03:34:16;;;;;;;18.73;17.30;;;17.10;99.90;;;;;;4934142;29;20469;-71
2021/06/06 03:36:46;;;;;;;19.40;18.10;;;17.10;99.90;;;;;;4934034;29;20809;-71
2021/06/06 03:39:15;;;;;;;18.73;17.70;;;17.00;99.90;;;;;;4933863;29;20449;-71
2021/06/06 03:41:42;;;;;;;20.33;18.93;;;17.10;99.90;;;;;;4933798;29;20457;-72
2021/06/06 03:44:09;;;;;;;20.00;18.80;;;17.00;99.90;;;;;;4933416;29;20445;-70
2021/06/06 03:46:37;;;;;;;19.60;18.30;;;17.00;99.90;;;;;;4933835;29;20461;-71
2021/06/06 03:49:05;;;;;;;18.83;17.67;;;16.90;99.90;;;;;;4933941;29;20461;-70
2021/06/06 03:51:31;;;;;;;18.80;17.50;;;16.90;99.90;;;;;;4933742;29;20497;-71
2021/06/06 03:53:59;;;;;;;20.70;19.50;;;17.00;99.90;;;;;;4933485;29;20453;-72
2021/06/06 03:56:25;;;;;;;21.20;19.80;;;16.90;99.90;;;;;;4933106;29;20469;-71
2021/06/06 03:58:52;;;;;;;20.83;19.73;;;16.90;99.90;;;;;;4933259;29;20493;-71
2021/06/06 04:01:18;;;;;;;19.23;18.13;;;16.80;99.90;;;;;;4933410;29;20462;-71
2021/06/06 04:03:44;;;;;;;19.70;18.30;;;16.90;99.90;;;;;;4933328;29;20457;-72
2021/06/06 04:06:11;;;;;;;19.77;18.17;;;16.90;99.90;;;;;;4933390;29;20453;-72
2021/06/06 04:08:37;;;;;;;19.77;18.47;;;17.00;99.90;;;;;;4933258;29;20512;-71
2021/06/06 04:11:05;;;;;;;20.03;18.50;;;17.00;99.90;;;;;;4933292;29;20825;-71
2021/06/06 04:13:32;;;;;;;19.07;17.87;;;17.00;99.90;;;;;;4933393;29;20458;-71
2021/06/06 04:15:59;;;;;;;19.03;17.83;;;17.00;99.90;;;;;;4933525;29;20457;-72
2021/06/06 04:18:29;;;;;;;18.83;17.53;;;17.00;99.90;;;;;;4933199;29;20465;-72
2021/06/06 04:20:57;;;;;;;19.07;17.67;;;17.00;99.90;;;;;;4934098;29;20453;-72
2021/06/06 04:23:24;;;;;;;19.23;18.03;;;17.00;99.90;;;;;;4937100;29;20449;-71
2021/06/06 04:25:51;;;;;;;20.33;18.87;;;17.00;99.90;;;;;;4937260;29;20485;-71
2021/06/06 04:28:20;;;;;;;19.77;17.93;;;17.00;99.90;;;;;;4936893;29;20453;-71
2021/06/06 04:30:47;;;;;;;16.63;15.63;;;17.00;99.90;;;;;;4937225;29;20464;-72
2021/06/06 04:33:13;;;;;;;18.60;17.40;;;17.00;99.90;;;;;;4937362;29;20569;-71
2021/06/06 04:35:41;;;;;;;17.73;16.50;;;17.00;99.90;;;;;;4937014;29;20456;-71
2021/06/06 04:38:09;;;;;;;18.70;17.50;;;17.00;99.90;;;;;;4936872;29;20460;-71
2021/06/06 04:40:36;;;;;;;16.10;15.03;;;17.00;99.90;;;;;;4936825;29;20845;-73
2021/06/06 04:43:04;;;;;;;17.70;16.60;;;17.00;99.90;;;;;;4936993;29;20445;-72
2021/06/06 04:45:32;;;;;;;16.60;15.67;;;17.00;99.90;;;;;;4936839;29;20453;-73
2021/06/06 04:48:08;;;;;;;17.80;16.47;;;17.00;99.90;;;;;;4936895;29;20449;-72
2021/06/06 04:50:34;;;;;;;17.57;16.57;;;17.10;99.90;;;;;;4936724;29;20955;-71
2021/06/06 04:53:00;;;;;;;16.57;15.57;;;17.00;99.90;;;;;;4936830;29;20556;-72
2021/06/06 04:55:27;;;;;;;21.00;19.73;;;17.00;99.90;;;;;;4936756;29;20457;-71
2021/06/06 04:57:53;;;;;;;26.73;25.33;;;17.00;99.90;;;;;;4936315;29;20866;-71
2021/06/06 05:00:23;;;;;;;32.20;30.00;;;16.90;99.90;;;;;;4936686;29;20457;-71
2021/06/06 05:02:51;;;;;;;33.20;31.40;;;16.80;99.90;;;;;;4936360;29;20445;-73
2021/06/06 05:05:17;;;;;;;32.90;31.07;;;16.70;99.90;;;;;;4936558;29;20829;-73
2021/06/06 05:07:49;;;;;;;34.50;32.30;;;16.80;99.90;;;;;;4936478;29;20793;-73
2021/06/06 05:10:15;;;;;;;35.20;32.80;;;16.70;99.90;;;;;;4936593;29;20453;-74
2021/06/06 05:12:41;;;;;;;33.90;32.00;;;16.80;99.90;;;;;;4936249;29;20489;-73
2021/06/06 05:15:09;;;;;;;34.63;32.73;;;16.70;99.90;;;;;;4936315;29;20454;-73
2021/06/06 05:17:36;;;;;;;35.27;33.27;;;16.60;99.90;;;;;;4936264;29;20457;-73
2021/06/06 05:20:06;;;;;;;34.07;32.07;;;16.70;99.90;;;;;;4936089;29;20481;-73
2021/06/06 05:22:32;;;;;;;33.43;31.33;;;16.70;99.90;;;;;;4936019;29;20454;-73
2021/06/06 05:24:58;;;;;;;33.30;31.07;;;16.60;99.90;;;;;;4936193;29;20454;-73
2021/06/06 05:27:25;;;;;;;30.90;29.20;;;16.70;99.90;;;;;;4935951;29;20460;-72
2021/06/06 05:29:51;;;;;;;32.10;30.10;;;16.70;99.90;;;;;;4936056;29;20484;-73
2021/06/06 05:32:17;;;;;;;31.80;29.90;;;16.70;99.90;;;;;;4935583;29;20512;-72
2021/06/06 05:34:44;;;;;;;31.57;29.67;;;16.70;99.90;;;;;;4936075;29;20464;-74
2021/06/06 05:37:13;;;;;;;31.00;29.23;;;16.70;99.90;;;;;;4935850;29;20461;-74
2021/06/06 05:39:40;;;;;;;32.03;30.13;;;16.70;99.90;;;;;;4935688;29;20472;-73
2021/06/06 05:42:07;;;;;;;30.63;28.83;;;16.70;99.90;;;;;;4935777;29;20505;-73
2021/06/06 05:44:34;;;;;;;30.60;28.40;;;16.70;99.90;;;;;;4935875;29;20468;-73
2021/06/06 05:47:00;;;;;;;29.20;27.40;;;16.70;99.90;;;;;;4935901;29;20457;-73
2021/06/06 05:49:26;;;;;;;29.67;27.97;;;16.80;99.90;;;;;;4935507;29;20449;-72
2021/06/06 05:51:53;;;;;;;30.47;28.50;;;16.70;99.90;;;;;;4935789;29;20512;-71
2021/06/06 05:54:20;;;;;;;30.60;28.90;;;16.70;99.90;;;;;;4935536;29;20453;-72
2021/06/06 05:56:47;;;;;;;30.93;28.50;;;16.60;99.90;;;;;;4935532;29;20470;-71
2021/06/06 05:59:13;;;;;;;29.90;28.00;;;16.50;99.90;;;;;;4935190;29;20481;-71
2021/06/06 06:01:40;;;;;;;29.33;27.40;;;16.60;99.90;;;;;;4935386;29;20452;-70
2021/06/06 06:04:06;;;;;;;29.33;27.47;;;16.50;99.90;;;;;;4935187;29;20453;-71
2021/06/06 06:06:33;;;;;;;29.63;27.73;;;16.60;99.90;;;;;;4935320;29;20458;-71
2021/06/06 06:08:59;;;;;;;29.87;27.80;;;16.60;99.90;;;;;;4935307;29;20828;-71
2021/06/06 06:11:28;;;;;;;29.80;28.03;;;16.60;99.90;;;;;;4935298;29;20461;-71
2021/06/06 06:13:54;;;;;;;26.93;25.43;;;16.60;99.90;;;;;;4935288;29;20624;-71
2021/06/06 06:16:25;;;;;;;27.57;25.87;;;16.70;99.90;;;;;;4935335;29;20516;-71
2021/06/06 06:18:52;;;;;;;31.00;28.90;;;16.70;99.90;;;;;;4935236;29;20955;-71
2021/06/06 06:21:19;;;;;;;30.03;27.90;;;16.60;99.90;;;;;;4935194;29;20465;-72
2021/06/06 06:23:46;;;;;;;30.30;28.23;;;16.70;99.90;;;;;;4934964;29;20453;-72
2021/06/06 06:26:12;;;;;;;32.50;30.30;;;16.80;99.90;;;;;;4935313;29;20453;-72
2021/06/06 06:28:42;;;;;;;31.50;29.37;;;16.70;99.90;;;;;;4934919;29;20983;-72
2021/06/06 06:31:08;;;;;;;30.87;28.97;;;16.60;99.90;;;;;;4934946;29;20454;-72
2021/06/06 06:33:35;;;;;;;30.87;28.87;;;16.60;99.90;;;;;;4934661;29;20564;-72
2021/06/06 06:36:01;;;;;;;31.70;29.40;;;16.60;99.90;;;;;;4935130;29;20461;-72
2021/06/06 06:38:29;;;;;;;31.07;29.07;;;16.60;99.90;;;;;;4934856;29;20840;-72
2021/06/06 06:40:56;;;;;;;30.33;28.50;;;16.70;99.90;;;;;;4934626;29;20449;-72
2021/06/06 06:43:22;;;;;;;30.03;28.20;;;16.70;99.90;;;;;;4934084;29;20576;-72
2021/06/06 06:45:49;;;;;;;31.60;29.20;;;16.70;99.90;;;;;;4934536;29;20461;-72
2021/06/06 06:48:18;;;;;;;29.50;27.50;;;16.70;99.90;;;;;;4934600;29;20457;-73
2021/06/06 06:50:46;;;;;;;29.30;27.60;;;16.80;99.90;;;;;;4934503;29;20486;-73
2021/06/06 06:53:12;;;;;;;29.27;27.37;;;16.80;99.90;;;;;;4934408;29;20485;-73
2021/06/06 06:55:38;;;;;;;30.13;27.83;;;16.80;99.90;;;;;;4934332;29;20464;-73
2021/06/06 06:58:06;;;;;;;29.60;27.70;;;16.90;99.90;;;;;;4934037;29;20841;-72
2021/06/06 07:00:37;;;;;;;29.90;28.07;;;16.80;99.90;;;;;;4934323;29;20458;-72
2021/06/06 07:03:05;;;;;;;27.90;26.20;;;16.80;99.90;;;;;;4934694;29;20532;-71
2021/06/06 07:05:32;;;;;;;29.67;27.63;;;16.90;99.90;;;;;;4934556;29;20757;-72
2021/06/06 07:07:58;;;;;;;29.30;27.10;;;16.90;99.90;;;;;;4934239;29;20959;-71
2021/06/06 07:10:28;;;;;;;28.97;26.63;;;16.90;99.90;;;;;;4934007;29;20457;-71
2021/06/06 07:12:54;;;;;;;29.07;26.93;;;17.00;99.90;;;;;;4934034;29;20489;-72
2021/06/06 07:15:21;;;;;;;26.97;25.40;;;17.00;99.90;;;;;;4934159;29;20453;-71
2021/06/06 07:17:48;;;;;;;27.50;25.77;;;17.00;99.90;;;;;;4934105;29;20449;-72
2021/06/06 07:20:18;;;;;;;25.40;23.70;;;17.00;99.90;;;;;;4933987;29;20458;-72
2021/06/06 07:22:44;;;;;;;25.83;24.20;;;17.00;99.90;;;;;;4934030;29;20453;-72
2021/06/06 07:25:12;;;;;;;26.10;24.40;;;16.90;99.90;;;;;;4933776;29;20453;-74
2021/06/06 07:27:43;;;;;;;23.73;22.30;;;16.80;99.90;;;;;;4934006;29;20824;-72
2021/06/06 07:30:11;;;;;;;22.70;21.40;;;16.80;99.90;;;;;;4933839;29;20470;-73
2021/06/06 07:32:37;;;;;;;23.50;21.90;;;16.80;99.90;;;;;;4933063;29;20489;-72
2021/06/06 07:35:05;;;;;;;23.30;21.67;;;16.90;99.90;;;;;;4933274;29;20951;-72
2021/06/06 07:37:33;;;;;;;23.43;22.00;;;16.90;99.90;;;;;;4933295;29;20461;-72
2021/06/06 07:40:00;;;;;;;22.83;21.20;;;17.00;99.90;;;;;;4933743;29;20457;-73
2021/06/06 07:42:26;;;;;;;22.87;21.30;;;17.10;99.90;;;;;;4933416;29;20481;-72
2021/06/06 07:44:52;;;;;;;23.70;22.00;;;17.00;99.90;;;;;;4933410;29;20457;-73
2021/06/06 07:47:18;;;;;;;23.10;21.23;;;17.00;99.90;;;;;;4932995;29;20485;-72
2021/06/06 07:49:45;;;;;;;21.00;19.50;;;17.10;99.90;;;;;;4933528;29;20461;-73
2021/06/06 07:52:11;;;;;;;23.33;21.67;;;17.10;99.90;;;;;;4933013;29;20841;-72
2021/06/06 07:54:38;;;;;;;24.57;22.63;;;17.10;99.90;;;;;;4933033;29;20775;-71
2021/06/06 07:57:05;;;;;;;22.30;20.50;;;17.20;99.90;;;;;;4932994;29;20480;-71
2021/06/06 07:59:33;;;;;;;23.67;21.57;;;17.20;99.90;;;;;;4933450;29;20473;-72
2021/06/06 08:02:00;;;;;;;24.63;22.83;;;17.30;99.90;;;;;;4933289;29;20489;-72
2021/06/06 08:04:26;;;;;;;25.13;23.10;;;17.30;99.90;;;;;;4933132;29;20453;-71
2021/06/06 08:06:53;;;;;;;23.63;21.60;;;17.20;99.90;;;;;;4932782;29;20829;-72
2021/06/06 08:09:20;;;;;;;23.80;21.90;;;17.10;99.90;;;;;;4933340;29;20457;-73
2021/06/06 08:11:48;;;;;;;24.67;22.77;;;17.10;99.90;;;;;;4933126;29;20844;-73
2021/06/06 08:14:14;;;;;;;24.50;22.50;;;17.00;99.90;;;;;;4933144;29;20461;-73
2021/06/06 08:16:41;;;;;;;23.30;21.50;;;17.00;99.90;;;;;;4933201;29;20457;-72
2021/06/06 08:19:07;;;;;;;26.27;23.77;;;17.00;99.90;;;;;;4933279;29;20561;-73
2021/06/06 08:21:38;;;;;;;24.03;22.30;;;17.00;99.90;;;;;;4933072;29;20461;-73
2021/06/06 08:24:05;;;;;;;24.90;22.73;;;17.10;99.90;;;;;;4933166;29;20465;-73
2021/06/06 08:26:32;;;;;;;25.83;23.83;;;17.10;99.90;;;;;;4933041;29;20504;-73
2021/06/06 08:29:00;;;;;;;25.83;23.50;;;17.10;99.90;;;;;;4933441;29;20449;-73
2021/06/06 08:31:28;;;;;;;26.80;24.60;;;17.20;99.90;;;;;;4933048;29;20980;-74
2021/06/06 08:33:55;;;;;;;24.60;22.60;;;17.30;99.90;;;;;;4933181;29;20458;-73
2021/06/06 08:36:24;;;;;;;25.87;23.90;;;17.30;99.90;;;;;;4932930;29;20896;-74
2021/06/06 08:38:52;;;;;;;25.10;23.20;;;17.40;99.90;;;;;;4933079;29;20449;-73
2021/06/06 08:41:22;;;;;;;24.00;22.13;;;17.50;99.90;;;;;;4933087;29;20962;-73
2021/06/06 08:43:53;;;;;;;24.70;22.60;;;17.50;99.90;;;;;;4933060;29;20456;-74
2021/06/06 08:46:24;;;;;;;24.07;22.00;;;17.50;99.90;;;;;;4932937;29;20948;-74
2021/06/06 08:48:51;;;;;;;23.33;21.47;;;17.70;99.90;;;;;;4932838;29;20468;-73
2021/06/06 08:51:23;;;;;;;23.30;21.60;;;17.70;99.90;;;;;;4933041;29;20449;-73
2021/06/06 08:54:00;;;;;;;22.57;20.77;;;17.70;99.90;;;;;;4932765;29;21018;-73
2021/06/06 08:56:30;;;;;;;25.00;22.53;;;17.50;99.90;;;;;;4933069;29;20485;-74
2021/06/06 08:59:01;;;;;;;24.90;23.03;;;17.50;99.90;;;;;;4932671;29;20956;-74
2021/06/06 09:01:38;;;;;;;24.80;22.87;;;17.50;99.90;;;;;;4933008;29;20907;-72
2021/06/06 09:04:11;;;;;;;25.80;23.43;;;17.40;99.90;;;;;;4932695;29;20532;-73
2021/06/06 09:06:46;;;;;;;24.63;22.73;;;17.30;99.90;;;;;;4932910;29;20970;-73
2021/06/06 09:09:13;;;;;;;24.83;22.67;;;17.40;99.90;;;;;;4936273;29;20504;-73
2021/06/06 09:11:40;;;;;;;23.93;21.87;;;17.40;99.90;;;;;;4936158;29;21014;-74
2021/06/06 09:14:06;;;;;;;22.43;20.57;;;17.50;99.90;;;;;;4936504;29;20874;-74
2021/06/06 09:16:36;;;;;;;24.83;22.43;;;17.50;99.90;;;;;;4936211;29;20516;-75
2021/06/06 09:19:08;;;;;;;25.33;23.37;;;17.50;99.90;;;;;;4936395;29;20488;-74
2021/06/06 09:21:35;;;;;;;24.70;22.63;;;17.60;99.90;;;;;;4936220;29;20476;-75
2021/06/06 09:24:11;;;;;;;25.53;23.47;;;17.60;99.90;;;;;;4936030;29;20461;-74
2021/06/06 09:26:38;;;;;;;25.77;23.50;;;17.70;99.90;;;;;;4936158;29;20476;-74
2021/06/06 09:29:09;;;;;;;25.50;23.53;;;17.70;99.90;;;;;;4936098;29;20453;-75
2021/06/06 09:31:38;;;;;;;25.73;23.47;;;17.80;99.90;;;;;;4935897;29;20971;-74
2021/06/06 09:34:08;;;;;;;25.80;23.63;;;17.70;99.90;;;;;;4936132;29;20453;-74
2021/06/06 09:36:38;;;;;;;23.37;21.40;;;17.70;99.90;;;;;;4935327;29;20959;-76
2021/06/06 09:39:18;;;;;;;25.00;23.10;;;17.90;99.90;;;;;;4936103;29;20460;-75
2021/06/06 09:41:46;;;;;;;25.60;23.27;;;17.90;99.90;;;;;;4935706;29;20445;-74
2021/06/06 09:44:20;;;;;;;24.77;22.43;;;17.90;99.90;;;;;;4935746;29;20457;-75
2021/06/06 09:46:50;;;;;;;25.17;23.07;;;17.90;99.90;;;;;;4935824;29;20457;-74
2021/06/06 09:49:29;;;;;;;26.10;24.00;;;17.80;99.90;;;;;;4935552;29;20939;-74
2021/06/06 09:51:57;;;;;;;24.80;22.90;;;17.80;99.90;;;;;;4935485;29;20460;-73
2021/06/06 09:54:31;;;;;;;25.87;23.67;;;17.80;99.90;;;;;;4935424;29;20465;-72
2021/06/06 09:57:00;;;;;;;25.57;23.47;;;17.90;99.90;;;;;;4935275;29;20488;-72
2021/06/06 09:59:28;;;;;;;28.10;25.80;;;18.00;99.90;;;;;;4935698;29;20438;-71
2021/06/06 10:02:01;;;;;;;25.87;23.67;;;18.20;99.90;;;;;;4935282;29;20465;-71
2021/06/06 10:04:30;;;;;;;27.60;25.30;;;18.40;99.90;;;;;;4935434;29;20468;-71
2021/06/06 10:07:08;;;;;;;29.73;26.97;;;18.50;99.90;;;;;;4935301;29;20986;-72
2021/06/06 10:09:34;;;;;;;30.27;27.37;;;18.50;99.90;;;;;;4935449;29;20453;-71
2021/06/06 10:12:06;;;;;;;30.53;27.83;;;18.50;99.90;;;;;;4935175;29;20485;-71
2021/06/06 10:14:36;;;;;;;31.83;28.60;;;18.50;99.90;;;;;;4935242;29;20484;-74
2021/06/06 10:17:10;;;;;;;32.70;29.40;;;18.30;99.90;;;;;;4935443;29;20457;-72
2021/06/06 10:19:40;;;;;;;32.67;29.73;;;18.30;99.90;;;;;;4934105;29;20480;-73
2021/06/06 10:22:12;;;;;;;33.40;30.03;;;18.20;99.90;;;;;;4934824;29;20457;-72
2021/06/06 10:24:45;;;;;;;35.60;32.40;;;18.20;99.90;;;;;;4934986;29;20936;-73
2021/06/06 10:27:18;;;;;;;36.47;32.67;;;18.10;99.90;;;;;;4935175;29;20512;-72
2021/06/06 10:29:51;;;;;;;36.40;32.80;;;18.00;99.90;;;;;;4935237;29;20496;-73
2021/06/06 10:32:26;;;;;;;36.70;33.17;;;18.10;99.90;;;;;;4935216;29;20883;-73
2021/06/06 10:34:57;;;;;;;34.53;31.20;;;18.00;99.90;;;;;;4934488;29;20452;-72
2021/06/06 10:37:26;;;;;;;35.70;32.20;;;18.10;99.90;;;;;;4934771;29;20469;-72
2021/06/06 10:39:56;;;;;;;35.73;32.13;;;18.20;99.90;;;;;;4934840;29;20620;-73
2021/06/06 10:42:27;;;;;;;37.90;34.10;;;18.20;99.90;;;;;;4934803;29;20460;-73
2021/06/06 10:45:00;;;;;;;34.27;31.23;;;18.30;99.90;;;;;;4934479;29;20449;-72
2021/06/06 10:47:34;;;;;;;34.60;31.03;;;18.50;99.90;;;;;;4934649;29;20469;-72
2021/06/06 10:50:11;;;;;;;34.03;30.90;;;18.70;99.90;;;;;;4934801;29;20449;-72
2021/06/06 10:52:38;;;;;;;37.03;33.43;;;18.90;99.90;;;;;;4934464;29;20489;-73
2021/06/06 10:55:18;;;;;;;36.00;32.57;;;18.90;99.90;;;;;;4934621;29;20513;-72
2021/06/06 10:57:45;;;;;;;38.27;34.37;;;19.10;99.90;;;;;;4934358;29;20492;-72
2021/06/06 11:00:24;;;;;;;35.30;32.10;;;19.00;99.90;;;;;;4934541;29;20468;-71
2021/06/06 11:02:59;;;;;;;39.40;35.50;;;19.00;99.90;;;;;;4934307;29;20445;-71
2021/06/06 11:05:45;;;;;;;43.17;38.63;;;19.00;99.90;;;;;;4934237;29;20464;-72
2021/06/06 11:08:37;;;;;;;41.63;37.63;;;18.80;99.90;;;;;;4934269;29;20887;-72
2021/06/06 11:11:27;;;;;;;45.17;39.70;;;18.70;99.90;;;;;;4934281;29;20457;-72
2021/06/06 11:13:57;;;;;;;44.83;40.00;;;18.70;99.90;;;;;;4929890;29;20888;-72
2021/06/06 11:16:33;;;;;;;42.43;38.00;;;18.60;99.90;;;;;;4933792;29;20476;-71
2021/06/06 11:19:03;;;;;;;45.00;40.10;;;18.50;99.90;;;;;;4933931;29;20955;-72
2021/06/06 11:21:38;;;;;;;46.47;41.67;;;18.50;99.90;;;;;;4933611;29;20458;-71
2021/06/06 11:24:08;;;;;;;47.97;43.07;;;18.40;99.90;;;;;;4933716;29;20449;-72
2021/06/06 11:26:42;;;;;;;48.80;43.50;;;18.30;99.90;;;;;;4933548;29;20464;-70
2021/06/06 11:29:13;;;;;;;52.17;46.77;;;18.20;99.90;;;;;;4933462;29;20591;-69
2021/06/06 11:31:59;;;;;;;58.00;50.23;;;18.00;99.90;;;;;;4933247;29;20469;-69
2021/06/06 11:34:31;;;;;;;58.60;49.20;;;17.80;99.90;;;;;;4933508;29;20449;-68
2021/06/06 11:37:07;;;;;;;70.70;56.37;;;17.70;99.90;;;;;;4933473;29;20986;-68
2021/06/06 11:39:39;;;;;;;62.77;55.97;;;17.70;99.90;;;;;;4933595;29;20453;-68
2021/06/06 11:42:18;;;;;;;76.97;57.47;;;17.60;99.90;;;;;;4933322;29;20484;-69
2021/06/06 11:44:48;;;;;;;60.77;54.17;;;17.60;99.90;;;;;;4933304;29;20457;-70
2021/06/06 11:47:21;;;;;;;73.67;53.70;;;17.60;99.90;;;;;;4933156;29;20450;-70
2021/06/06 11:49:55;;;;;;;64.73;55.53;;;17.90;99.90;;;;;;4932992;29;20473;-69
2021/06/06 11:52:27;;;;;;;74.13;55.63;;;17.90;99.90;;;;;;4933032;29;21029;-69
2021/06/06 11:54:57;;;;;;;64.40;55.77;;;18.10;99.90;;;;;;4933114;29;20458;-72
2021/06/06 11:57:29;;;;;;;67.13;58.07;;;18.10;99.90;;;;;;4937988;28;20571;-71
2021/06/06 11:59:58;;;;;;;81.00;58.97;;;18.00;99.90;;;;;;4943731;29;20448;-70
2021/06/06 12:02:28;;;;;;;65.33;57.97;;;18.00;99.90;;;;;;4952060;29;20452;-70
2021/06/06 12:04:57;;;;;;;69.87;57.17;;;17.90;99.90;;;;;;4952453;29;20485;-70
2021/06/06 12:07:28;;;;;;;68.70;60.07;;;17.90;99.90;;;;;;4933059;29;20457;-70
2021/06/06 12:09:56;;;;;;;63.57;56.63;;;18.00;99.90;;;;;;4933070;29;20453;-70
2021/06/06 12:12:26;;;;;;;64.73;53.17;;;18.20;99.90;;;;;;4932939;29;20481;-69
2021/06/06 12:15:11;;;;;;;60.50;53.77;;;18.00;99.90;;;;;;4943620;29;20460;-70
2021/06/06 12:17:38;;;;;;;58.00;51.63;;;18.10;99.90;;;;;;4952068;29;20499;-70
2021/06/06 12:20:11;;;;;;;54.83;49.23;;;18.10;99.90;;;;;;4952234;29;20519;-70
2021/06/06 12:22:40;;;;;;;54.03;48.73;;;18.20;99.90;;;;;;4952168;29;20453;-70
2021/06/06 12:25:21;;;;;;;52.50;47.27;;;18.30;99.90;;;;;;4951992;28;20472;-73
2021/06/06 12:27:49;;;;;;;53.13;47.50;;;18.40;99.90;;;;;;4952295;29;20909;-71
2021/06/06 12:30:22;;;;;;;51.13;46.00;;;18.40;99.90;;;;;;4952184;28;20507;-70
2021/06/06 12:32:54;;;;;;;48.67;44.13;;;18.50;99.90;;;;;;4952155;29;20488;-72
2021/06/06 12:35:25;;;;;;;50.67;45.60;;;18.50;99.90;;;;;;4952005;29;20460;-72
2021/06/06 12:37:56;;;;;;;50.17;45.00;;;18.50;99.90;;;;;;4952014;29;20475;-71
2021/06/06 12:40:25;;;;;;;45.40;40.80;;;18.50;99.90;;;;;;4952153;29;20456;-71